CST,Max TemperatureF,Mean TemperatureF,Min TemperatureF,Max Dew PointF,MeanDew PointF,Min DewpointF,Max Humidity, Mean Humidity, Min Humidity, Max Sea Level PressureIn, Mean Sea Level PressureIn, Min Sea Level PressureIn, Max VisibilityMiles, Mean VisibilityMiles, Min VisibilityMiles, Max Wind SpeedMPH, Mean Wind SpeedMPH, Max Gust SpeedMPH,PrecipitationIn, CloudCover, Events, WindDirDegrees
2013-1-1,29,10,-9,25,14,-7,96,84,71,30.23,29.97,29.82,10,5,1,30,15,37,T,6,Snow,232
2013-1-2,30,23,15,27,21,10,92,85,78,30.35,30.04,29.84,10,8,2,26,15,33,T,8,Snow,302
2013-1-3,31,22,12,14,12,8,84,66,47,30.33,30.14,30.01,10,10,10,30,15,37,0.00,2,,240
2013-1-4,27,15,2,15,10,1,91,76,60,30.13,30.07,29.99,10,10,10,16,6,20,0.00,0,,224
2013-1-5,19,11,3,15,9,1,96,85,73,30.22,30.09,29.93,10,6,0,26,14,32,T,5,Fog-Snow,284
2013-1-6,33,24,14,22,16,12,100,80,59,30.21,29.99,29.72,10,6,0,24,13,32,0.00,5,Fog,202
2013-1-7,30,24,18,21,17,13,80,72,63,29.87,29.79,29.67,10,10,10,25,15,33,0.00,0,,234
2013-1-8,36,26,16,28,22,12,88,76,63,29.91,29.68,29.49,10,10,9,43,18,54,T,4,,245
2013-1-9,36,25,13,26,18,9,84,74,63,30.13,29.99,29.81,10,10,10,24,12,30,0.00,1,,193
2013-1-10,36,28,19,28,25,16,92,78,64,29.79,29.62,29.51,10,9,6,23,10,28,0.00,2,,263
2013-1-11,19,12,4,15,7,0,96,88,80,29.92,29.72,29.59,4,2,0,32,21,53,T,8,Fog-Rain-Snow,344
2013-1-12,4,0,-5,-1,-6,-12,87,76,65,30.29,30.10,29.83,10,6,0,31,16,40,T,2,Fog-Snow,298
2013-1-13,5,0,-5,0,-6,-11,83,74,65,30.32,30.25,30.13,10,9,2,17,10,20,T,4,Snow,274
2013-1-14,11,4,-4,2,-3,-8,83,73,63,30.31,30.21,30.02,10,10,10,15,6,20,0.00,7,,212
2013-1-15,38,22,5,34,20,1,89,78,67,30.08,29.76,29.55,10,8,1,29,14,35,T,7,Snow,225
2013-1-16,37,23,8,32,20,7,96,87,77,30.24,29.89,29.61,10,6,1,20,8,23,0.04,7,Snow,338
2013-1-17,25,17,8,21,10,2,92,83,73,30.45,30.23,29.87,10,8,2,22,9,28,T,7,Snow,85
2013-1-18,38,28,18,29,25,18,92,81,70,29.90,29.77,29.69,10,10,8,22,8,28,0.00,3,,232
2013-1-19,37,17,-4,30,2,-11,82,73,64,30.46,30.14,29.72,10,6,0,41,23,52,T,5,Snow,293
2013-1-20,3,-4,-12,-2,-12,-21,87,73,58,30.61,30.44,30.27,10,5,1,35,21,40,T,3,Snow,287
2013-1-21,1,-6,-14,-9,-15,-22,71,65,58,30.51,30.44,30.38,10,10,10,22,14,25,0.00,0,,273
2013-1-22,10,3,-4,5,0,-9,80,73,65,30.36,30.22,30.07,10,7,2,17,5,21,T,6,Snow,194
2013-1-23,6,-1,-9,0,-10,-14,83,74,64,30.64,30.52,30.27,10,10,10,18,11,23,0.00,2,,334
2013-1-24,20,7,-6,14,0,-12,82,74,65,30.56,30.08,29.84,10,6,1,35,18,44,T,6,Snow,174
2013-1-25,8,0,-8,1,-8,-14,79,71,62,30.35,30.21,29.97,10,9,2,32,11,38,T,1,Snow,285
2013-1-26,29,17,5,20,10,-2,88,79,69,30.12,30.00,29.94,10,10,8,14,5,18,0.00,4,,65
2013-1-27,17,10,3,12,6,0,96,85,73,29.95,29.84,29.75,10,6,0,9,3,10,0.01,4,Fog-Snow,317
2013-1-28,29,16,2,24,14,-1,96,85,74,29.86,29.79,29.71,10,5,0,12,4,13,0.06,6,Fog-Snow,274
2013-1-29,21,10,-2,18,8,-8,96,88,79,30.19,29.88,29.70,10,3,0,29,12,35,T,8,Fog-Snow,288
2013-1-30,-2,-9,-17,-8,-16,-24,75,69,63,30.22,30.08,29.97,10,6,2,28,17,31,T,4,Snow,292
2013-1-31,-11,-15,-20,-21,-24,-28,70,66,62,30.48,30.38,30.18,10,10,10,24,16,29,0.00,0,,270